createdAt,value
2023-01-29T01:07:42.232Z,95783.00
2023-01-29T01:08:42.299Z,95787.00
2023-01-29T01:09:42.298Z,95787.00
2023-01-29T01:10:42.353Z,95789.00
2023-01-29T01:11:42.359Z,95791.00
2023-01-29T01:12:42.368Z,95793.00
2023-01-29T01:13:42.411Z,95796.00
2023-01-29T01:14:42.456Z,95800.00
2023-01-29T01:15:42.472Z,95798.00
2023-01-29T01:16:42.491Z,95800.00
2023-01-29T01:17:42.525Z,95800.00
2023-01-29T01:18:42.545Z,95800.00
2023-01-29T01:19:42.583Z,95800.00
2023-01-29T01:20:42.624Z,95802.00
2023-01-29T01:28:42.834Z,95806.00
2023-01-29T01:29:42.840Z,95806.00
2023-01-29T01:30:42.958Z,95806.00
2023-01-29T01:31:42.971Z,95806.00
2023-01-29T01:32:42.972Z,95810.00
2023-01-29T01:33:43.030Z,95806.00
2023-01-29T01:34:43.026Z,95806.00
2023-01-29T01:35:43.031Z,95808.00
2023-01-29T02:34:44.527Z,95835.00
2023-01-29T02:35:44.556Z,95835.00
2023-01-29T02:36:44.525Z,95838.00
2023-01-29T02:37:44.570Z,95838.00
2023-01-29T02:38:44.678Z,95840.00
2023-01-29T02:39:44.589Z,95840.00
2023-01-29T02:40:44.584Z,95840.00
2023-01-29T02:41:44.645Z,95840.00
2023-01-29T02:42:44.701Z,95841.00
2023-01-29T02:43:44.652Z,95841.00
2023-01-29T02:44:44.690Z,95841.00
2023-01-29T02:45:44.737Z,95841.00
2023-01-29T02:46:44.700Z,95840.00
2023-01-29T02:47:44.717Z,95840.00
2023-01-29T02:48:44.711Z,95840.00
2023-01-29T02:49:44.769Z,95843.00
2023-01-29T02:50:44.789Z,95841.00
2023-01-29T02:51:44.780Z,95845.00
2023-01-29T02:52:44.829Z,95847.00
2023-01-29T02:53:44.818Z,95847.00
2023-01-29T02:54:44.820Z,95845.00
2023-01-29T02:55:44.798Z,95845.00
2023-01-29T02:56:44.792Z,95843.00
2023-01-29T02:57:44.851Z,95841.00
2023-01-29T02:58:44.860Z,95843.00
2023-01-29T02:59:44.894Z,95845.00
2023-01-29T03:00:44.941Z,95845.00
2023-01-29T03:01:44.942Z,95845.00
2023-01-29T03:02:44.980Z,95849.00
2023-01-29T03:03:45.003Z,95849.00
2023-01-29T03:04:45.052Z,95847.00
2023-01-29T03:05:45.097Z,95851.00
2023-01-29T03:06:45.133Z,95851.00
2023-01-29T03:07:45.187Z,95851.00
2023-01-29T03:08:45.163Z,95853.00
2023-01-29T03:09:45.195Z,95855.00
2023-01-29T03:10:45.199Z,95855.00
2023-01-29T03:11:45.225Z,95859.00
2023-01-29T03:12:45.229Z,95861.00
2023-01-29T03:13:45.218Z,95859.00
2023-01-29T03:14:45.269Z,95861.00
2023-01-29T03:15:45.231Z,95857.00
2023-01-29T03:16:45.318Z,95857.00
2023-01-29T03:17:45.263Z,95857.00
2023-01-29T03:18:45.281Z,95857.00
2023-01-29T03:19:45.322Z,95861.00
2023-01-29T03:20:45.351Z,95865.00
2023-01-29T03:21:45.344Z,95863.00
2023-01-29T03:22:45.646Z,95867.00
2023-01-29T03:23:45.367Z,95869.00
2023-01-29T03:24:45.370Z,95867.00
2023-01-29T03:25:45.441Z,95865.00
2023-01-29T03:26:45.417Z,95867.00
2023-01-29T03:27:45.490Z,95865.00
2023-01-29T03:28:45.521Z,95861.00
2023-01-29T03:29:45.519Z,95865.00
2023-01-29T03:30:45.554Z,95865.00
2023-01-29T03:31:45.658Z,95867.00
2023-01-29T03:32:45.557Z,95867.00
2023-01-29T03:33:45.629Z,95869.00
2023-01-29T03:34:45.630Z,95869.00
2023-01-29T03:35:45.647Z,95871.00
2023-01-29T03:36:45.719Z,95871.00
2023-01-29T03:37:45.707Z,95869.00
2023-01-29T03:38:45.751Z,95865.00
2023-01-29T03:39:45.756Z,95865.00
2023-01-29T03:40:45.788Z,95861.00
2023-01-29T03:41:45.840Z,95863.00
2023-01-29T03:42:45.842Z,95867.00
2023-01-29T03:43:45.858Z,95861.00
2023-01-29T03:44:48.059Z,95863.00
2023-01-29T03:45:45.953Z,95865.00
2023-01-29T03:46:45.916Z,95865.00
2023-01-29T03:47:45.913Z,95865.00
2023-01-29T03:48:45.892Z,95863.00
2023-01-29T03:49:45.880Z,95861.00
2023-01-29T03:50:45.831Z,95857.00
2023-01-29T03:51:45.831Z,95857.00
2023-01-29T03:52:45.834Z,95857.00
2023-01-29T03:53:45.847Z,95855.00
2023-01-29T03:54:45.843Z,95855.00
2023-01-29T03:55:45.813Z,95855.00
2023-01-29T03:56:45.789Z,95855.00
2023-01-29T03:57:45.817Z,95857.00
2023-01-29T03:58:45.825Z,95853.00
2023-01-29T03:59:45.809Z,95855.00
2023-01-29T04:00:45.760Z,95851.00
2023-01-29T04:01:45.827Z,95855.00
2023-01-29T04:02:45.780Z,95855.00
2023-01-29T04:03:45.813Z,95853.00
2023-01-29T04:04:45.763Z,95855.00
2023-01-29T04:05:45.737Z,95855.00
2023-01-29T04:06:45.756Z,95855.00
2023-01-29T04:07:45.701Z,95855.00
2023-01-29T04:08:45.730Z,95855.00
2023-01-29T04:09:45.753Z,95857.00
2023-01-29T04:10:45.703Z,95857.00
2023-01-29T04:11:45.699Z,95855.00
2023-01-29T04:12:45.711Z,95857.00
2023-01-29T04:13:45.671Z,95859.00
2023-01-29T04:14:45.662Z,95859.00
2023-01-29T04:15:45.659Z,95861.00
2023-01-29T04:16:45.708Z,95861.00
2023-01-29T04:17:45.635Z,95863.00
2023-01-29T04:18:45.659Z,95863.00
2023-01-29T04:19:45.599Z,95867.00
2023-01-29T04:20:45.623Z,95867.00
2023-01-29T04:21:45.617Z,95865.00
2023-01-29T04:22:45.625Z,95865.00
2023-01-29T04:23:45.578Z,95861.00
2023-01-29T04:24:45.604Z,95863.00
2023-01-29T04:25:45.553Z,95863.00
2023-01-29T04:26:45.550Z,95865.00
2023-01-29T04:27:45.613Z,95865.00
2023-01-29T04:28:45.568Z,95865.00
2023-01-29T04:29:45.570Z,95865.00
2023-01-29T04:30:45.567Z,95859.00
2023-01-29T04:31:45.567Z,95863.00
2023-01-29T04:32:45.534Z,95861.00
2023-01-29T04:33:45.552Z,95865.00
2023-01-29T04:34:45.517Z,95861.00
2023-01-29T04:35:45.496Z,95863.00
2023-01-29T04:36:45.491Z,95861.00
2023-01-29T04:37:45.529Z,95863.00
2023-01-29T04:38:45.475Z,95861.00
2023-01-29T04:39:45.432Z,95865.00
2023-01-29T04:40:45.497Z,95867.00
2023-01-29T04:41:45.433Z,95869.00
2023-01-29T04:42:45.450Z,95867.00
2023-01-29T04:43:45.454Z,95865.00
2023-01-29T04:44:45.412Z,95869.00
2023-01-29T04:45:45.420Z,95867.00
2023-01-29T04:46:45.423Z,95869.00
2023-01-29T04:47:45.549Z,95867.00
2023-01-29T04:48:45.423Z,95863.00
2023-01-29T04:49:45.398Z,95859.00
2023-01-29T04:50:45.398Z,95861.00
2023-01-29T04:51:45.373Z,95859.00
2023-01-29T04:52:45.361Z,95861.00
2023-01-29T04:53:45.332Z,95861.00
2023-01-29T04:54:45.353Z,95859.00
2023-01-29T04:55:45.393Z,95857.00
2023-01-29T04:56:45.358Z,95859.00
2023-01-29T04:57:45.400Z,95855.00
2023-01-29T04:58:45.379Z,95853.00
2023-01-29T04:59:45.454Z,95851.00
2023-01-29T05:00:45.480Z,95851.00
2023-01-29T05:01:45.618Z,95853.00
2023-01-29T05:02:45.578Z,95853.00
2023-01-29T05:03:45.531Z,95855.00
2023-01-29T05:04:45.567Z,95855.00
2023-01-29T05:05:45.585Z,95855.00
2023-01-29T05:06:45.586Z,95857.00
2023-01-29T05:07:45.608Z,95857.00
2023-01-29T05:08:45.626Z,95853.00
2023-01-29T05:09:45.624Z,95851.00
2023-01-29T05:10:45.660Z,95851.00
2023-01-29T05:11:45.703Z,95855.00
2023-01-29T05:12:45.716Z,95855.00
2023-01-29T05:13:45.757Z,95857.00
2023-01-29T05:14:45.772Z,95857.00
2023-01-29T05:15:45.864Z,95857.00
2023-01-29T05:16:45.844Z,95857.00
2023-01-29T05:17:45.899Z,95859.00
2023-01-29T05:18:45.933Z,95861.00
2023-01-29T05:19:45.965Z,95863.00
2023-01-29T05:20:46.024Z,95865.00
2023-01-29T05:21:46.010Z,95861.00
2023-01-29T05:22:46.023Z,95863.00
2023-01-29T05:23:46.036Z,95869.00
2023-01-29T05:26:46.103Z,95873.00
2023-01-29T05:27:46.156Z,95875.00
2023-01-29T05:28:46.169Z,95877.00
2023-01-29T05:29:46.138Z,95877.00
2023-01-29T05:30:46.208Z,95877.00
2023-01-29T05:31:46.283Z,95883.00
2023-01-29T05:32:46.188Z,95881.00
2023-01-29T05:33:46.268Z,95885.00
2023-01-29T05:34:46.239Z,95887.00
2023-01-29T05:35:46.281Z,95890.00
2023-01-29T05:36:46.251Z,95890.00
2023-01-29T05:37:46.284Z,95892.00
2023-01-29T05:38:46.285Z,95896.00
2023-01-29T05:39:46.316Z,95896.00
2023-01-29T05:40:46.344Z,95900.00
2023-01-29T05:41:46.359Z,95898.00
2023-01-29T05:43:46.433Z,95904.00
2023-01-29T05:44:46.490Z,95904.00
2023-01-29T05:45:46.482Z,95904.00
2023-01-29T05:46:46.522Z,95902.00
2023-01-29T05:47:46.568Z,95902.00
2023-01-29T05:48:46.596Z,95900.00
2023-01-29T05:49:46.603Z,95902.00
2023-01-29T05:50:46.650Z,95906.00
2023-01-29T05:51:46.660Z,95904.00
2023-01-29T05:52:46.669Z,95904.00
2023-01-29T05:53:46.709Z,95906.00
2023-01-29T05:54:46.762Z,95906.00
2023-01-29T05:55:46.683Z,95906.00
2023-01-29T05:56:46.718Z,95902.00
2023-01-29T05:57:46.730Z,95898.00
2023-01-29T05:58:46.733Z,95902.00
2023-01-29T05:59:46.779Z,95902.00
2023-01-29T06:00:48.210Z,95900.00
2023-01-29T06:01:46.896Z,95898.00
2023-01-29T06:02:46.885Z,95898.00
2023-01-29T06:03:46.946Z,95898.00
2023-01-29T06:04:46.910Z,95896.00
2023-01-29T06:05:46.950Z,95898.00
2023-01-29T06:24:15.035Z,95922.00
2023-01-29T06:25:14.974Z,95920.00
2023-01-29T06:26:14.987Z,95918.00
2023-01-29T06:27:14.972Z,95916.00
2023-01-29T06:28:14.943Z,95918.00
2023-01-29T06:29:15.020Z,95918.00
2023-01-29T06:30:15.126Z,95918.00
2023-01-29T06:31:36.313Z,95922.00
2023-01-29T06:32:16.043Z,95920.00
2023-01-29T06:33:14.924Z,95918.00
2023-01-29T06:34:14.897Z,95922.00
2023-01-29T06:35:14.878Z,95922.00
2023-01-29T06:36:14.872Z,95922.00
2023-01-29T06:37:14.894Z,95920.00
2023-01-29T06:38:14.868Z,95920.00
2023-01-29T06:39:14.899Z,95920.00
2023-01-29T06:40:15.226Z,95920.00
2023-01-29T06:41:14.879Z,95920.00
2023-01-29T06:42:14.841Z,95920.00
2023-01-29T06:43:14.825Z,95920.00
2023-01-29T06:44:14.840Z,95922.00
2023-01-29T06:45:14.807Z,95922.00
2023-01-29T06:46:14.806Z,95926.00
2023-01-29T06:47:14.803Z,95927.00
2023-01-29T06:48:14.802Z,95929.00
2023-01-29T06:49:14.855Z,95929.00
2023-01-29T06:50:15.266Z,95927.00
2023-01-29T06:51:14.882Z,95927.00
2023-01-29T06:52:14.866Z,95926.00
2023-01-29T06:53:14.940Z,95929.00
2023-01-29T06:54:14.948Z,95931.00
2023-01-29T06:55:14.897Z,95929.00
2023-01-29T06:56:14.930Z,95933.00
2023-01-29T06:57:14.962Z,95941.00
2023-01-29T06:58:14.990Z,95941.00
2023-01-29T06:59:15.040Z,95945.00
2023-01-29T07:00:15.295Z,95945.00
2023-01-29T07:01:29.281Z,95943.00
2023-01-29T07:02:16.145Z,95943.00
2023-01-29T07:03:15.097Z,95945.00
2023-01-29T07:04:15.057Z,95943.00
2023-01-29T07:05:15.047Z,95943.00
2023-01-29T07:06:15.052Z,95945.00
2023-01-29T07:07:15.057Z,95943.00
2023-01-29T07:08:15.046Z,95941.00
2023-01-29T07:09:15.049Z,95941.00
2023-01-29T07:10:15.396Z,95943.00
2023-01-29T07:11:15.019Z,95943.00
2023-01-29T07:12:14.996Z,95945.00
2023-01-29T07:13:14.991Z,95947.00
2023-01-29T07:14:15.022Z,95943.00
2023-01-29T07:15:14.985Z,95941.00
2023-01-29T07:16:15.031Z,95943.00
2023-01-29T07:17:14.967Z,95945.00
2023-01-29T07:18:14.966Z,95945.00
2023-01-29T07:19:14.989Z,95943.00
2023-01-29T07:20:15.384Z,95947.00
2023-01-29T07:21:15.054Z,95947.00
2023-01-29T07:22:15.102Z,95947.00
2023-01-29T07:23:15.102Z,95943.00
2023-01-29T07:24:15.196Z,95947.00
2023-01-29T07:25:15.154Z,95945.00
2023-01-29T07:26:15.206Z,95945.00
2023-01-29T07:27:15.188Z,95947.00
2023-01-29T07:28:15.241Z,95947.00
2023-01-29T07:29:15.245Z,95949.00
2023-01-29T07:30:15.681Z,95947.00
2023-01-29T07:31:15.478Z,95947.00
2023-01-29T07:32:15.385Z,95945.00
2023-01-29T07:33:15.389Z,95943.00
2023-01-29T07:34:15.374Z,95945.00
2023-01-29T07:35:15.399Z,95943.00
2023-01-29T07:36:15.441Z,95945.00
2023-01-29T07:37:15.440Z,95945.00
2023-01-29T07:38:15.440Z,95947.00
2023-01-29T07:39:15.491Z,95943.00
2023-01-29T07:40:15.843Z,95947.00
2023-01-29T07:41:15.500Z,95945.00
2023-01-29T07:42:15.510Z,95947.00
2023-01-29T07:43:15.570Z,95947.00
2023-01-29T07:44:15.538Z,95949.00
2023-01-29T07:45:15.552Z,95945.00
2023-01-29T07:46:15.661Z,95943.00
2023-01-29T07:47:17.198Z,95945.00
2023-01-29T07:48:15.593Z,95941.00
2023-01-29T07:49:15.602Z,95941.00
2023-01-29T07:50:16.032Z,95941.00
2023-01-29T07:51:15.669Z,95943.00
2023-01-29T07:52:15.741Z,95943.00
2023-01-29T07:53:15.759Z,95941.00
2023-01-29T07:54:15.797Z,95933.00
2023-01-29T07:55:15.809Z,95931.00
2023-01-29T07:56:15.817Z,95941.00
2023-01-29T07:57:15.908Z,95931.00
2023-01-29T07:58:15.915Z,95933.00
2023-01-29T07:59:15.920Z,95933.00
2023-01-29T08:00:16.339Z,95933.00
2023-01-29T08:01:16.048Z,95931.00
2023-01-29T08:02:16.034Z,95931.00
2023-01-29T08:03:16.070Z,95929.00
2023-01-29T08:04:16.049Z,95933.00
2023-01-29T08:05:16.119Z,95933.00
2023-01-29T08:06:16.121Z,95943.00
2023-01-29T08:07:16.169Z,95931.00
2023-01-29T08:08:16.187Z,95933.00
2023-01-29T08:09:16.245Z,95931.00
2023-01-29T08:10:16.676Z,95927.00
2023-01-29T08:11:16.310Z,95929.00
2023-01-29T08:12:16.353Z,95927.00
2023-01-29T08:13:16.433Z,95927.00
2023-01-29T08:14:16.466Z,95924.00
2023-01-29T08:15:16.519Z,95926.00
2023-01-29T08:16:16.614Z,95924.00
2023-01-29T08:17:16.627Z,95922.00
2023-01-29T08:18:16.718Z,95924.00
2023-01-29T08:19:16.741Z,95922.00
2023-01-29T08:20:17.207Z,95920.00
2023-01-29T08:21:16.848Z,95916.00
2023-01-29T08:22:16.931Z,95916.00
2023-01-29T08:23:16.971Z,95912.00
2023-01-29T08:24:17.137Z,95912.00
2023-01-29T08:25:17.067Z,95912.00
2023-01-29T08:26:17.098Z,95914.00
2023-01-29T08:27:17.199Z,95912.00
2023-01-29T08:28:17.219Z,95910.00
2023-01-29T08:29:17.298Z,95908.00
2023-01-29T08:30:18.432Z,95910.00
2023-01-29T08:31:17.395Z,95910.00
2023-01-29T08:32:17.473Z,95912.00
2023-01-29T08:33:19.433Z,95914.00
2023-01-29T08:34:17.523Z,95914.00
2023-01-29T08:35:17.922Z,95912.00
2023-01-29T08:36:17.504Z,95916.00
2023-01-29T08:37:17.501Z,95918.00
2023-01-29T08:38:17.524Z,95916.00
2023-01-29T08:39:17.494Z,95916.00
2023-01-29T08:40:17.676Z,95916.00
2023-01-29T08:41:17.485Z,95914.00
2023-01-29T08:42:17.462Z,95912.00
2023-01-29T08:43:17.447Z,95918.00
2023-01-29T08:44:17.469Z,95914.00
2023-01-29T08:45:17.447Z,95916.00
2023-01-29T08:46:17.483Z,95918.00
2023-01-29T08:47:17.442Z,95916.00
2023-01-29T08:48:17.438Z,95916.00
2023-01-29T08:49:17.431Z,95918.00
2023-01-29T08:50:17.963Z,95916.00
2023-01-29T08:51:17.402Z,95918.00
2023-01-29T08:52:17.361Z,95918.00
2023-01-29T08:53:17.380Z,95914.00
2023-01-29T08:54:17.395Z,95914.00
2023-01-29T08:55:17.749Z,95914.00
2023-01-29T08:56:17.392Z,95912.00
2023-01-29T08:57:17.345Z,95914.00
2023-01-29T08:58:17.344Z,95916.00
2023-01-29T08:59:17.321Z,95916.00
2023-01-29T09:00:17.749Z,95916.00
2023-01-29T09:01:17.411Z,95920.00
2023-01-29T09:02:17.376Z,95918.00
2023-01-29T09:03:17.341Z,95922.00
2023-01-29T09:04:17.330Z,95920.00
2023-01-29T09:05:17.755Z,95918.00
2023-01-29T09:06:17.296Z,95918.00
2023-01-29T09:07:17.259Z,95918.00
2023-01-29T09:08:17.303Z,95916.00
2023-01-29T09:09:17.277Z,95914.00
2023-01-29T09:10:17.269Z,95910.00
2023-01-29T09:11:17.293Z,95912.00
2023-01-29T09:12:17.259Z,95916.00
2023-01-29T09:13:17.245Z,95914.00
2023-01-29T09:14:17.261Z,95914.00
2023-01-29T09:15:17.540Z,95916.00
2023-01-29T09:16:17.268Z,95914.00
2023-01-29T09:17:17.234Z,95916.00
2023-01-29T09:18:17.248Z,95912.00
2023-01-29T09:19:17.272Z,95914.00
2023-01-29T09:20:17.290Z,95912.00
2023-01-29T09:21:17.363Z,95912.00
2023-01-29T09:22:17.411Z,95914.00
2023-01-29T09:23:17.443Z,95914.00
2023-01-29T09:24:17.504Z,95914.00
2023-01-29T09:25:17.930Z,95916.00
2023-01-29T09:26:17.620Z,95914.00
2023-01-29T09:27:17.643Z,95912.00
2023-01-29T09:28:17.726Z,95914.00
2023-01-29T09:29:17.804Z,95914.00
2023-01-29T09:30:17.857Z,95914.00
2023-01-29T09:31:18.091Z,95914.00
2023-01-29T09:32:37.589Z,95912.00
2023-01-29T09:33:18.898Z,95908.00
2023-01-29T09:34:17.907Z,95908.00
2023-01-29T09:35:18.153Z,95908.00
2023-01-29T09:36:17.885Z,95904.00
2023-01-29T09:37:17.886Z,95906.00
2023-01-29T09:38:17.889Z,95904.00
2023-01-29T09:39:17.863Z,95906.00
2023-01-29T09:40:17.849Z,95902.00
2023-01-29T09:41:17.857Z,95900.00
2023-01-29T09:42:17.862Z,95900.00
2023-01-29T09:43:17.838Z,95900.00
2023-01-29T09:44:17.828Z,95902.00
2023-01-29T09:45:18.275Z,95902.00
2023-01-29T09:46:18.034Z,95900.00
2023-01-29T09:47:18.004Z,95902.00
2023-01-29T09:48:18.055Z,95902.00
2023-01-29T09:49:18.145Z,95896.00
2023-01-29T09:50:20.168Z,95894.00
2023-01-29T09:51:18.223Z,95894.00
2023-01-29T09:52:18.277Z,95890.00
2023-01-29T09:53:18.352Z,95890.00
2023-01-29T09:54:18.390Z,95892.00
2023-01-29T09:55:18.675Z,95888.00
2023-01-29T09:56:18.429Z,95887.00
2023-01-29T09:57:18.417Z,95888.00
2023-01-29T09:58:18.461Z,95890.00
2023-01-29T09:59:18.485Z,95890.00
2023-01-29T10:00:18.470Z,95890.00
2023-01-29T10:01:18.589Z,95892.00
2023-01-29T10:02:18.581Z,95892.00
2023-01-29T10:03:18.481Z,95894.00
2023-01-29T10:04:18.537Z,95894.00
2023-01-29T10:05:18.911Z,95894.00
2023-01-29T10:06:18.504Z,95894.00
2023-01-29T10:07:18.546Z,95894.00
2023-01-29T10:08:18.593Z,95890.00
2023-01-29T10:09:18.629Z,95890.00
2023-01-29T10:10:18.618Z,95888.00
2023-01-29T10:11:18.680Z,95888.00
2023-01-29T10:12:18.704Z,95885.00
2023-01-29T10:13:18.747Z,95887.00
2023-01-29T10:14:18.810Z,95881.00
2023-01-29T10:15:19.002Z,95881.00
2023-01-29T10:16:18.810Z,95883.00
2023-01-29T10:17:18.931Z,95881.00
2023-01-29T10:18:18.821Z,95881.00
2023-01-29T10:19:18.871Z,95877.00
2023-01-29T10:20:18.874Z,95875.00
2023-01-29T10:21:18.889Z,95875.00
2023-01-29T10:22:18.976Z,95869.00
2023-01-29T10:23:18.969Z,95869.00
2023-01-29T10:24:19.012Z,95865.00
2023-01-29T10:25:19.448Z,95869.00
2023-01-29T10:26:19.073Z,95863.00
2023-01-29T10:27:19.110Z,95863.00
2023-01-29T10:28:19.100Z,95861.00
2023-01-29T10:29:19.151Z,95857.00
2023-01-29T10:30:19.219Z,95857.00
2023-01-29T10:31:19.325Z,95855.00
2023-01-29T10:32:19.218Z,95857.00
2023-01-29T10:33:19.290Z,95857.00
2023-01-29T10:34:19.324Z,95855.00
2023-01-29T10:35:19.348Z,95857.00
2023-01-29T10:36:19.391Z,95853.00
2023-01-29T10:37:19.396Z,95851.00
2023-01-29T10:38:19.429Z,95847.00
2023-01-29T10:39:19.520Z,95847.00
2023-01-29T10:40:19.615Z,95845.00
2023-01-29T10:41:19.628Z,95847.00
2023-01-29T10:42:19.656Z,95845.00
2023-01-29T10:43:19.756Z,95845.00
2023-01-29T10:44:19.804Z,95847.00
2023-01-29T10:45:20.313Z,95849.00
2023-01-29T10:46:19.875Z,95843.00
2023-01-29T10:47:19.900Z,95840.00
2023-01-29T10:48:19.920Z,95841.00
2023-01-29T10:49:19.931Z,95840.00
2023-01-29T10:50:19.999Z,95835.00
2023-01-29T10:51:20.035Z,95835.00
2023-01-29T10:52:20.094Z,95835.00
2023-01-29T10:53:20.134Z,95833.00
2023-01-29T10:54:20.216Z,95835.00
2023-01-29T10:55:20.211Z,95838.00
2023-01-29T10:56:22.974Z,95838.00
2023-01-29T10:57:20.244Z,95835.00
2023-01-29T10:58:20.257Z,95833.00
2023-01-29T10:59:20.262Z,95833.00
2023-01-29T11:00:20.225Z,95833.00
2023-01-29T11:01:20.367Z,95832.00
2023-01-29T11:02:20.284Z,95828.00
2023-01-29T11:03:28.083Z,95830.00
2023-01-29T11:04:21.242Z,95828.00
2023-01-29T11:05:20.198Z,95828.00
2023-01-29T11:06:20.213Z,95830.00
2023-01-29T11:07:20.236Z,95830.00
2023-01-29T11:08:20.205Z,95833.00
2023-01-29T11:09:20.196Z,95832.00
2023-01-29T11:10:20.795Z,95833.00
2023-01-29T11:11:20.160Z,95830.00
2023-01-29T11:12:21.707Z,95826.00
2023-01-29T11:13:20.329Z,95830.00
2023-01-29T11:14:20.308Z,95828.00
2023-01-29T11:15:20.277Z,95826.00
2023-01-29T11:16:20.314Z,95826.00
2023-01-29T11:17:20.357Z,95824.00
2023-01-29T11:18:20.329Z,95826.00
2023-01-29T11:19:20.673Z,95822.00
2023-01-29T11:20:20.333Z,95820.00
2023-01-29T11:21:20.363Z,95820.00
2023-01-29T11:22:20.360Z,95822.00
2023-01-29T11:23:20.351Z,95820.00
2023-01-29T11:24:20.381Z,95822.00
2023-01-29T11:25:20.399Z,95818.00
2023-01-29T11:26:20.421Z,95818.00
2023-01-29T11:27:20.383Z,95816.00
2023-01-29T11:28:20.376Z,95818.00
2023-01-29T11:29:20.414Z,95818.00
2023-01-29T11:30:20.558Z,95816.00
2023-01-29T11:31:20.493Z,95810.00
2023-01-29T11:32:20.422Z,95814.00
2023-01-29T11:33:20.445Z,95808.00
2023-01-29T11:34:20.436Z,95808.00
2023-01-29T11:35:20.448Z,95804.00
2023-01-29T11:36:20.446Z,95802.00
2023-01-29T11:37:20.455Z,95798.00
2023-01-29T11:38:20.431Z,95798.00
2023-01-29T11:39:20.520Z,95798.00
2023-01-29T11:40:20.473Z,95796.00
2023-01-29T11:41:20.551Z,95794.00
2023-01-29T11:42:20.594Z,95793.00
2023-01-29T11:43:20.599Z,95791.00
2023-01-29T11:44:20.640Z,95785.00
2023-01-29T11:45:20.677Z,95785.00
2023-01-29T11:46:20.675Z,95781.00
2023-01-29T11:47:20.663Z,95775.00
2023-01-29T11:48:20.651Z,95777.00
2023-01-29T11:49:21.121Z,95775.00
2023-01-29T11:50:20.702Z,95773.00
2023-01-29T11:51:20.662Z,95767.00
2023-01-29T11:52:20.673Z,95767.00
2023-01-29T11:53:20.663Z,95765.00
2023-01-29T11:54:20.746Z,95763.00
2023-01-29T11:55:20.641Z,95761.00
2023-01-29T11:56:20.649Z,95763.00
2023-01-29T11:57:20.652Z,95757.00
2023-01-29T11:58:20.656Z,95755.00
2023-01-29T11:59:20.634Z,95757.00
2023-01-29T12:00:20.670Z,95753.00
2023-01-29T12:01:20.689Z,95751.00
2023-01-29T12:02:20.709Z,95746.00
2023-01-29T12:03:21.753Z,95747.00
2023-01-29T12:04:20.777Z,95740.00
2023-01-29T12:05:20.834Z,95740.00
2023-01-29T12:06:20.858Z,95738.00
2023-01-29T12:07:20.870Z,95736.00
2023-01-29T12:08:20.923Z,95738.00
2023-01-29T12:09:20.937Z,95734.00
2023-01-29T12:10:20.975Z,95734.00
2023-01-29T12:11:21.030Z,95732.00
2023-01-29T12:12:21.061Z,95730.00
2023-01-29T12:13:21.111Z,95730.00
2023-01-29T12:14:21.119Z,95730.00
2023-01-29T12:15:21.161Z,95724.00
2023-01-29T12:16:21.217Z,95726.00
2023-01-29T12:17:21.255Z,95724.00
2023-01-29T12:18:21.230Z,95722.00
2023-01-29T12:19:21.292Z,95724.00
2023-01-29T12:20:21.339Z,95720.00
2023-01-29T12:21:21.358Z,95720.00
2023-01-29T12:22:21.393Z,95716.00
2023-01-29T12:23:21.460Z,95714.00
2023-01-29T12:24:21.471Z,95714.00
2023-01-29T12:25:21.491Z,95710.00
2023-01-29T12:26:21.515Z,95708.00
2023-01-29T12:27:21.571Z,95712.00
2023-01-29T12:28:21.595Z,95708.00
2023-01-29T12:29:21.622Z,95712.00
2023-01-29T12:30:21.681Z,95712.00
2023-01-29T12:31:21.716Z,95712.00
2023-01-29T12:32:21.740Z,95712.00
2023-01-29T12:33:21.773Z,95710.00
2023-01-29T12:34:21.797Z,95710.00
2023-01-29T12:35:21.823Z,95710.00
2023-01-29T12:36:21.812Z,95706.00
2023-01-29T12:37:21.832Z,95704.00
2023-01-29T12:38:21.851Z,95704.00
2023-01-29T12:39:21.831Z,95702.00
2023-01-29T12:40:21.871Z,95700.00
2023-01-29T12:41:21.840Z,95700.00
2023-01-29T12:42:21.906Z,95699.00
2023-01-29T12:43:21.916Z,95693.00
2023-01-29T12:44:21.937Z,95693.00
2023-01-29T12:45:22.014Z,95693.00
2023-01-29T12:46:22.026Z,95691.00
2023-01-29T12:47:22.085Z,95687.00
2023-01-29T12:48:22.131Z,95687.00
2023-01-29T12:49:22.176Z,95675.00
2023-01-29T12:50:22.300Z,95675.00
2023-01-29T12:51:22.209Z,95675.00
2023-01-29T12:52:22.278Z,95673.00
2023-01-29T12:53:22.309Z,95673.00
2023-01-29T12:54:22.317Z,95671.00
2023-01-29T12:55:22.374Z,95669.00
2023-01-29T12:56:22.389Z,95667.00
2023-01-29T12:57:22.446Z,95665.00
2023-01-29T12:58:22.487Z,95667.00
2023-01-29T12:59:22.509Z,95667.00
2023-01-29T13:00:22.577Z,95667.00
2023-01-29T13:01:22.704Z,95667.00
2023-01-29T13:02:22.579Z,95665.00
2023-01-29T13:03:22.726Z,95663.00
2023-01-29T13:04:22.627Z,95665.00
2023-01-29T13:05:22.650Z,95661.00
2023-01-29T13:06:22.692Z,95659.00
2023-01-29T13:07:22.693Z,95654.00
2023-01-29T13:08:22.715Z,95655.00
2023-01-29T13:09:22.715Z,95654.00
2023-01-29T13:10:22.737Z,95654.00
2023-01-29T13:11:22.727Z,95649.00
2023-01-29T13:12:22.770Z,95647.00
2023-01-29T13:13:22.763Z,95647.00
2023-01-29T13:14:22.795Z,95646.00
2023-01-29T13:15:22.830Z,95642.00
2023-01-29T13:16:22.803Z,95642.00
2023-01-29T13:17:22.835Z,95640.00
2023-01-29T13:18:22.825Z,95642.00
2023-01-29T13:19:22.873Z,95640.00
2023-01-29T13:20:22.885Z,95640.00
2023-01-29T13:21:22.918Z,95634.00
2023-01-29T13:22:22.946Z,95638.00
2023-01-29T13:23:22.973Z,95632.00
2023-01-29T13:24:22.936Z,95630.00
2023-01-29T13:25:22.939Z,95626.00
2023-01-29T13:26:23.015Z,95626.00
2023-01-29T13:27:23.007Z,95622.00
2023-01-29T13:28:23.023Z,95620.00
2023-01-29T13:29:23.051Z,95620.00
2023-01-29T13:30:23.062Z,95616.00
2023-01-29T13:31:23.203Z,95616.00
2023-01-29T13:32:23.176Z,95612.00
2023-01-29T13:33:23.187Z,95612.00
2023-01-29T13:34:23.181Z,95610.00
2023-01-29T13:35:23.228Z,95610.00
2023-01-29T13:36:23.219Z,95612.00
2023-01-29T13:37:23.287Z,95610.00
2023-01-29T13:38:23.343Z,95612.00
2023-01-29T13:39:23.387Z,95612.00
2023-01-29T13:40:23.428Z,95612.00
2023-01-29T13:41:23.453Z,95612.00
2023-01-29T13:42:23.543Z,95612.00
2023-01-29T13:43:23.577Z,95614.00
2023-01-29T13:44:23.658Z,95612.00
2023-01-29T13:45:23.689Z,95612.00
2023-01-29T13:46:23.796Z,95614.00
2023-01-29T13:47:23.803Z,95610.00
2023-01-29T13:48:23.915Z,95614.00
2023-01-29T13:49:23.951Z,95614.00
2023-01-29T13:50:24.018Z,95614.00
2023-01-29T13:51:24.081Z,95614.00
2023-01-29T13:52:24.115Z,95614.00
2023-01-29T13:53:24.216Z,95618.00
2023-01-29T13:54:24.314Z,95616.00
2023-01-29T13:55:24.308Z,95616.00
2023-01-29T13:56:24.429Z,95616.00
2023-01-29T13:57:24.460Z,95616.00
2023-01-29T13:58:24.490Z,95616.00
2023-01-29T13:59:24.540Z,95616.00
2023-01-29T14:00:24.618Z,95620.00
2023-01-29T14:01:24.671Z,95618.00
2023-01-29T14:02:24.752Z,95616.00
2023-01-29T14:03:24.788Z,95618.00
2023-01-29T14:04:24.830Z,95614.00
2023-01-29T14:05:24.895Z,95614.00
2023-01-29T14:06:24.940Z,95614.00
2023-01-29T14:07:25.006Z,95614.00
2023-01-29T14:08:25.025Z,95612.00
2023-01-29T14:09:25.104Z,95610.00
2023-01-29T14:10:25.135Z,95612.00
2023-01-29T14:11:25.187Z,95610.00
2023-01-29T14:12:25.206Z,95604.00
2023-01-29T14:13:25.259Z,95606.00
2023-01-29T14:14:25.214Z,95602.00
2023-01-29T14:15:25.597Z,95602.00
2023-01-29T14:16:25.334Z,95597.00
2023-01-29T14:17:25.318Z,95599.00